sensor_id;sensor_type;location;lat;lon;timestamp;P1;durP1;ratioP1;P2;durP2;ratioP2
928;SDS011;451;47.988;7.842;2023-01-05T00:04:57;1.03;;;0.90;;
928;SDS011;451;47.988;7.842;2023-01-05T00:13:59;1.37;;;0.90;;
928;SDS011;451;47.988;7.842;2023-01-05T00:23:21;1.23;;;1.00;;
928;SDS011;451;47.988;7.842;2023-01-05T00:32:23;0.90;;;0.80;;
928;SDS011;451;47.988;7.842;2023-01-05T00:41:25;1.47;;;0.90;;
928;SDS011;451;47.988;7.842;2023-01-05T00:50:27;0.90;;;0.73;;
928;SDS011;451;47.988;7.842;2023-01-05T00:59:28;0.97;;;0.77;;
928;SDS011;451;47.988;7.842;2023-01-05T01:08:30;1.37;;;0.70;;
928;SDS011;451;47.988;7.842;2023-01-05T01:17:32;0.97;;;0.70;;
928;SDS011;451;47.988;7.842;2023-01-05T01:26:34;0.90;;;0.80;;
928;SDS011;451;47.988;7.842;2023-01-05T01:35:36;1.50;;;0.80;;
928;SDS011;451;47.988;7.842;2023-01-05T01:54:01;0.97;;;0.90;;
928;SDS011;451;47.988;7.842;2023-01-05T02:03:06;1.10;;;0.70;;
928;SDS011;451;47.988;7.842;2023-01-05T02:12:46;0.80;;;0.70;;
928;SDS011;451;47.988;7.842;2023-01-05T02:31:26;0.80;;;0.70;;
928;SDS011;451;47.988;7.842;2023-01-05T02:40:38;1.00;;;0.90;;
928;SDS011;451;47.988;7.842;2023-01-05T02:49:50;0.90;;;0.70;;
928;SDS011;451;47.988;7.842;2023-01-05T02:59:01;0.90;;;0.70;;
928;SDS011;451;47.988;7.842;2023-01-05T03:08:13;0.80;;;0.60;;
928;SDS011;451;47.988;7.842;2023-01-05T03:17:27;0.80;;;0.60;;
928;SDS011;451;47.988;7.842;2023-01-05T03:26:34;0.80;;;0.60;;
928;SDS011;451;47.988;7.842;2023-01-05T03:35:55;1.47;;;0.63;;
928;SDS011;451;47.988;7.842;2023-01-05T03:44:59;1.00;;;0.70;;
928;SDS011;451;47.988;7.842;2023-01-05T03:54:03;0.80;;;0.70;;
928;SDS011;451;47.988;7.842;2023-01-05T04:03:07;1.37;;;0.77;;
928;SDS011;451;47.988;7.842;2023-01-05T04:12:10;0.80;;;0.73;;
928;SDS011;451;47.988;7.842;2023-01-05T04:21:28;0.80;;;0.70;;
928;SDS011;451;47.988;7.842;2023-01-05T04:30:32;1.57;;;0.70;;
928;SDS011;451;47.988;7.842;2023-01-05T04:39:34;0.90;;;0.70;;
928;SDS011;451;47.988;7.842;2023-01-05T04:48:37;0.90;;;0.60;;
928;SDS011;451;47.988;7.842;2023-01-05T04:57:40;0.80;;;0.70;;
928;SDS011;451;47.988;7.842;2023-01-05T05:06:45;0.90;;;0.67;;
928;SDS011;451;47.988;7.842;2023-01-05T05:15:49;0.90;;;0.60;;
928;SDS011;451;47.988;7.842;2023-01-05T05:24:51;1.10;;;1.00;;
928;SDS011;451;47.988;7.842;2023-01-05T05:33:53;1.20;;;0.80;;
928;SDS011;451;47.988;7.842;2023-01-05T05:42:55;1.67;;;0.80;;
928;SDS011;451;47.988;7.842;2023-01-05T05:51:57;0.80;;;0.67;;
928;SDS011;451;47.988;7.842;2023-01-05T06:00:58;1.10;;;0.70;;
928;SDS011;451;47.988;7.842;2023-01-05T06:10:00;0.90;;;0.73;;
928;SDS011;451;47.988;7.842;2023-01-05T06:19:02;0.80;;;0.70;;
928;SDS011;451;47.988;7.842;2023-01-05T06:28:04;0.80;;;0.70;;
928;SDS011;451;47.988;7.842;2023-01-05T06:37:05;0.90;;;0.60;;
928;SDS011;451;47.988;7.842;2023-01-05T06:46:07;0.90;;;0.70;;
928;SDS011;451;47.988;7.842;2023-01-05T06:55:09;1.10;;;1.00;;
928;SDS011;451;47.988;7.842;2023-01-05T07:04:12;1.13;;;1.03;;
928;SDS011;451;47.988;7.842;2023-01-05T07:13:14;0.87;;;0.87;;
928;SDS011;451;47.988;7.842;2023-01-05T07:22:15;1.13;;;1.03;;
928;SDS011;451;47.988;7.842;2023-01-05T07:31:17;0.90;;;0.77;;
928;SDS011;451;47.988;7.842;2023-01-05T07:40:19;1.07;;;0.90;;
928;SDS011;451;47.988;7.842;2023-01-05T07:49:21;1.00;;;0.90;;
928;SDS011;451;47.988;7.842;2023-01-05T07:58:23;1.00;;;0.90;;
928;SDS011;451;47.988;7.842;2023-01-05T08:07:30;0.97;;;0.80;;
928;SDS011;451;47.988;7.842;2023-01-05T08:16:31;1.10;;;1.00;;
928;SDS011;451;47.988;7.842;2023-01-05T08:25:33;1.33;;;1.00;;
928;SDS011;451;47.988;7.842;2023-01-05T08:34:35;1.97;;;0.80;;
928;SDS011;451;47.988;7.842;2023-01-05T08:43:37;0.87;;;0.80;;
928;SDS011;451;47.988;7.842;2023-01-05T08:52:39;1.00;;;0.90;;
928;SDS011;451;47.988;7.842;2023-01-05T09:01:41;1.10;;;0.83;;
928;SDS011;451;47.988;7.842;2023-01-05T09:10:43;1.40;;;1.03;;
928;SDS011;451;47.988;7.842;2023-01-05T09:19:45;1.57;;;1.47;;
928;SDS011;451;47.988;7.842;2023-01-05T09:28:46;1.50;;;1.00;;
928;SDS011;451;47.988;7.842;2023-01-05T09:37:48;1.30;;;1.10;;
928;SDS011;451;47.988;7.842;2023-01-05T09:46:50;1.40;;;1.20;;
928;SDS011;451;47.988;7.842;2023-01-05T09:55:56;1.97;;;1.00;;
928;SDS011;451;47.988;7.842;2023-01-05T10:04:58;2.00;;;1.37;;
928;SDS011;451;47.988;7.842;2023-01-05T10:14:08;1.70;;;1.17;;
928;SDS011;451;47.988;7.842;2023-01-05T10:51:10;1.53;;;1.20;;
928;SDS011;451;47.988;7.842;2023-01-05T11:00:14;1.87;;;0.93;;
928;SDS011;451;47.988;7.842;2023-01-05T11:18:28;1.00;;;0.90;;
928;SDS011;451;47.988;7.842;2023-01-05T11:27:34;1.60;;;1.10;;
928;SDS011;451;47.988;7.842;2023-01-05T11:36:37;1.50;;;0.90;;
928;SDS011;451;47.988;7.842;2023-01-05T11:45:44;1.10;;;0.90;;
928;SDS011;451;47.988;7.842;2023-01-05T11:54:49;1.30;;;0.90;;
928;SDS011;451;47.988;7.842;2023-01-05T12:50:41;1.10;;;0.80;;
928;SDS011;451;47.988;7.842;2023-01-05T13:00:09;1.27;;;1.00;;
928;SDS011;451;47.988;7.842;2023-01-05T13:09:18;1.20;;;1.10;;
928;SDS011;451;47.988;7.842;2023-01-05T13:18:23;1.20;;;0.90;;
928;SDS011;451;47.988;7.842;2023-01-05T13:27:26;1.10;;;1.00;;
928;SDS011;451;47.988;7.842;2023-01-05T13:55:18;1.53;;;1.20;;
928;SDS011;451;47.988;7.842;2023-01-05T14:04:23;1.13;;;0.90;;
928;SDS011;451;47.988;7.842;2023-01-05T14:22:47;1.20;;;1.10;;
928;SDS011;451;47.988;7.842;2023-01-05T14:31:48;1.13;;;0.90;;
928;SDS011;451;47.988;7.842;2023-01-05T14:40:51;1.30;;;1.20;;
928;SDS011;451;47.988;7.842;2023-01-05T14:49:57;1.90;;;1.37;;
928;SDS011;451;47.988;7.842;2023-01-05T14:59:15;1.60;;;1.10;;
928;SDS011;451;47.988;7.842;2023-01-05T15:36:58;2.03;;;1.30;;
928;SDS011;451;47.988;7.842;2023-01-05T15:46:08;3.83;;;1.50;;
928;SDS011;451;47.988;7.842;2023-01-05T15:56:29;1.77;;;1.20;;
928;SDS011;451;47.988;7.842;2023-01-05T16:06:29;1.50;;;1.40;;
928;SDS011;451;47.988;7.842;2023-01-05T16:15:33;2.03;;;1.53;;
928;SDS011;451;47.988;7.842;2023-01-05T16:24:43;2.37;;;1.67;;
928;SDS011;451;47.988;7.842;2023-01-05T16:34:02;2.93;;;1.87;;
928;SDS011;451;47.988;7.842;2023-01-05T16:43:34;1.57;;;1.47;;
928;SDS011;451;47.988;7.842;2023-01-05T16:52:41;2.00;;;1.90;;
928;SDS011;451;47.988;7.842;2023-01-05T17:02:25;1.70;;;1.60;;
928;SDS011;451;47.988;7.842;2023-01-05T17:11:35;1.83;;;1.70;;
928;SDS011;451;47.988;7.842;2023-01-05T17:20:39;2.17;;;1.60;;
928;SDS011;451;47.988;7.842;2023-01-05T17:29:42;2.70;;;2.50;;
928;SDS011;451;47.988;7.842;2023-01-05T17:38:43;3.87;;;2.30;;
928;SDS011;451;47.988;7.842;2023-01-05T17:47:45;5.00;;;2.60;;
928;SDS011;451;47.988;7.842;2023-01-05T17:56:48;1.80;;;1.70;;
928;SDS011;451;47.988;7.842;2023-01-05T18:05:50;2.33;;;1.80;;
928;SDS011;451;47.988;7.842;2023-01-05T18:14:53;2.33;;;1.80;;
928;SDS011;451;47.988;7.842;2023-01-05T18:23:56;3.23;;;2.23;;
928;SDS011;451;47.988;7.842;2023-01-05T18:32:59;3.00;;;2.40;;
928;SDS011;451;47.988;7.842;2023-01-05T18:42:01;9.93;;;7.10;;
928;SDS011;451;47.988;7.842;2023-01-05T18:51:06;2.97;;;1.83;;
928;SDS011;451;47.988;7.842;2023-01-05T19:00:08;2.60;;;2.17;;
928;SDS011;451;47.988;7.842;2023-01-05T19:09:11;2.10;;;1.90;;
928;SDS011;451;47.988;7.842;2023-01-05T19:18:14;1.73;;;1.50;;
928;SDS011;451;47.988;7.842;2023-01-05T19:27:15;4.40;;;3.00;;
928;SDS011;451;47.988;7.842;2023-01-05T19:36:18;3.17;;;2.60;;
928;SDS011;451;47.988;7.842;2023-01-05T19:45:21;2.50;;;1.93;;
928;SDS011;451;47.988;7.842;2023-01-05T19:54:23;3.03;;;2.40;;
928;SDS011;451;47.988;7.842;2023-01-05T20:03:28;2.50;;;2.20;;
928;SDS011;451;47.988;7.842;2023-01-05T20:12:30;4.33;;;3.43;;
928;SDS011;451;47.988;7.842;2023-01-05T20:21:32;6.33;;;3.80;;
928;SDS011;451;47.988;7.842;2023-01-05T20:30:34;5.33;;;4.80;;
928;SDS011;451;47.988;7.842;2023-01-05T20:39:36;5.83;;;4.77;;
928;SDS011;451;47.988;7.842;2023-01-05T20:48:39;8.37;;;6.90;;
928;SDS011;451;47.988;7.842;2023-01-05T20:57:41;6.07;;;4.60;;
928;SDS011;451;47.988;7.842;2023-01-05T21:06:44;4.70;;;3.70;;
928;SDS011;451;47.988;7.842;2023-01-05T21:15:57;5.90;;;4.17;;
928;SDS011;451;47.988;7.842;2023-01-05T21:25:00;3.87;;;3.57;;
928;SDS011;451;47.988;7.842;2023-01-05T21:34:02;7.90;;;5.73;;
928;SDS011;451;47.988;7.842;2023-01-05T21:43:04;6.80;;;5.33;;
928;SDS011;451;47.988;7.842;2023-01-05T21:52:06;4.87;;;4.00;;
928;SDS011;451;47.988;7.842;2023-01-05T22:01:27;4.67;;;3.50;;
928;SDS011;451;47.988;7.842;2023-01-05T22:10:29;5.97;;;4.80;;
928;SDS011;451;47.988;7.842;2023-01-05T22:19:31;3.37;;;3.17;;
928;SDS011;451;47.988;7.842;2023-01-05T22:28:37;5.40;;;3.17;;
928;SDS011;451;47.988;7.842;2023-01-05T22:37:39;3.67;;;3.37;;
928;SDS011;451;47.988;7.842;2023-01-05T22:46:41;3.27;;;2.90;;
928;SDS011;451;47.988;7.842;2023-01-05T22:55:43;2.87;;;2.43;;
928;SDS011;451;47.988;7.842;2023-01-05T23:04:45;5.03;;;3.00;;
928;SDS011;451;47.988;7.842;2023-01-05T23:13:47;2.50;;;2.30;;
928;SDS011;451;47.988;7.842;2023-01-05T23:22:49;3.20;;;2.43;;
928;SDS011;451;47.988;7.842;2023-01-05T23:31:51;5.23;;;2.67;;
928;SDS011;451;47.988;7.842;2023-01-05T23:40:54;4.13;;;2.90;;
928;SDS011;451;47.988;7.842;2023-01-05T23:49:57;5.13;;;2.87;;
928;SDS011;451;47.988;7.842;2023-01-05T23:59:08;3.03;;;2.70;;
